Time;durP1;ratioP1;P1;durP2;ratioP2;P2;SDS_P1;SDS_P2;PMS_P1;PMS_P2;Temp;Humidity;BMP_temperature;BMP_pressure;BME280_temperature;BME280_humidity;BME280_pressure;Samples;Min_cycle;Max_cycle;Signal;HPM_P1;HPM_P2
2021/06/01 00:01:39;;;;;;;2.60;1.30;;;19.90;43.30;;;;;;2299386;55;21005;-73
2021/06/01 00:04:07;;;;;;;3.22;1.40;;;19.90;43.30;;;;;;2295373;55;21002;-74
2021/06/01 00:06:33;;;;;;;2.83;1.30;;;19.90;43.30;;;;;;2274942;55;21446;-73
2021/06/01 00:09:00;;;;;;;2.40;1.05;;;19.90;43.20;;;;;;2355265;54;21564;-72
2021/06/01 00:11:27;;;;;;;2.20;1.00;;;19.90;43.30;;;;;;2295313;55;21494;-72
2021/06/01 00:13:53;;;;;;;4.03;1.25;;;19.90;43.40;;;;;;2292306;55;21069;-72
2021/06/01 00:16:20;;;;;;;2.37;1.17;;;19.90;44.00;;;;;;2288097;55;21010;-72
2021/06/01 00:18:46;;;;;;;2.35;1.10;;;19.90;43.40;;;;;;2287671;55;20961;-72
2021/06/01 00:21:13;;;;;;;3.15;1.30;;;19.90;43.50;;;;;;2273512;55;21041;-71
2021/06/01 00:23:39;;;;;;;3.30;1.10;;;19.80;43.40;;;;;;2283630;55;20959;-72
2021/06/01 00:26:10;;;;;;;2.42;1.05;;;19.80;43.40;;;;;;2295047;55;21071;-72
2021/06/01 00:28:36;;;;;;;2.30;1.10;;;19.80;43.20;;;;;;2272769;55;20938;-74
2021/06/01 00:31:04;;;;;;;3.40;1.00;;;19.80;43.40;;;;;;2516382;54;21442;-72
2021/06/01 00:33:31;;;;;;;2.30;1.20;;;19.80;43.30;;;;;;2370209;54;21051;-73
2021/06/01 00:36:03;;;;;;;2.40;1.08;;;19.80;43.30;;;;;;2281678;55;21523;-74
2021/06/01 00:38:29;;;;;;;;;;;19.70;43.00;;;;;;2298202;55;21102;-74
2021/06/01 00:40:56;;;;;;;3.03;1.35;;;19.80;42.90;;;;;;2294863;55;20071;-73
2021/06/01 00:43:23;;;;;;;2.37;1.17;;;19.70;43.50;;;;;;2293721;55;21025;-72
2021/06/01 00:45:49;;;;;;;2.72;1.35;;;19.70;43.40;;;;;;2298227;55;20981;-75
2021/06/01 00:48:16;;;;;;;3.83;1.37;;;19.70;43.40;;;;;;2283175;55;21090;-72
2021/06/01 00:50:42;;;;;;;4.37;1.35;;;19.70;43.40;;;;;;2291575;55;21005;-72
2021/06/01 00:53:08;;;;;;;2.15;1.20;;;19.60;43.40;;;;;;2294440;55;21017;-73
2021/06/01 00:55:35;;;;;;;2.70;1.10;;;19.60;43.30;;;;;;2330648;54;20989;-73
2021/06/01 00:58:01;;;;;;;2.03;1.02;;;19.60;43.40;;;;;;2289100;55;21081;-73
2021/06/01 01:00:53;;;;;;;2.53;1.05;;;19.60;43.50;;;;;;2287503;55;20989;-73
2021/06/01 01:03:20;;;;;;;2.45;1.35;;;19.50;43.40;;;;;;2279818;55;21013;-73
2021/06/01 01:05:51;;;;;;;2.03;0.95;;;19.50;43.40;;;;;;2296534;55;20939;-73
2021/06/01 01:12:00;;;;;;;2.12;0.93;;;19.50;43.00;;;;;;2298675;55;21616;-71
2021/06/01 01:14:33;;;;;;;2.58;1.25;;;19.40;43.00;;;;;;2371981;53;20985;-73
2021/06/01 01:17:11;;;;;;;2.22;1.05;;;19.40;43.40;;;;;;2292213;55;20993;-72
2021/06/01 01:21:35;;;;;;;2.97;1.10;;;19.40;43.30;;;;;;2388043;54;20998;-73
2021/06/01 01:29:12;;;;;;;1.85;0.82;;;19.30;43.00;;;;;;2295996;55;20986;-72
2021/06/01 01:31:43;;;;;;;1.90;0.88;;;19.30;43.30;;;;;;2525386;53;20970;-71
2021/06/01 01:34:10;;;;;;;2.50;1.02;;;19.20;43.80;;;;;;2277928;55;20982;-72
2021/06/01 01:36:36;;;;;;;2.22;1.08;;;19.20;43.90;;;;;;2287367;55;21410;-74
2021/06/01 01:39:06;;;;;;;2.90;1.50;;;19.20;43.90;;;;;;2295654;55;21415;-73
2021/06/01 01:41:39;;;;;;;3.83;1.75;;;19.10;43.90;;;;;;2276710;55;21514;-73
2021/06/01 01:44:10;;;;;;;3.35;1.50;;;19.10;43.90;;;;;;2295446;54;21825;-74
2021/06/01 01:49:37;;;;;;;2.97;1.40;;;19.00;44.10;;;;;;2292690;55;21316;-71
2021/06/01 01:52:04;;;;;;;3.92;1.37;;;19.00;44.10;;;;;;2403950;54;20969;-73
2021/06/01 01:54:31;;;;;;;2.87;1.30;;;19.00;44.00;;;;;;2284516;55;21118;-74
2021/06/01 01:57:07;;;;;;;1.65;0.80;;;18.90;43.80;;;;;;2299603;54;21430;-74
2021/06/01 01:59:33;;;;;;;3.12;1.10;;;18.90;43.80;;;;;;2295398;55;20961;-73
2021/06/01 02:01:59;;;;;;;2.28;1.08;;;18.90;43.90;;;;;;2524818;53;21002;-73
2021/06/01 02:04:29;;;;;;;2.20;1.00;;;18.80;43.90;;;;;;2288768;55;21652;-74
2021/06/01 02:06:55;;;;;;;2.42;1.08;;;18.80;44.00;;;;;;2519732;54;21070;-73
2021/06/01 02:09:22;;;;;;;2.40;1.10;;;18.80;44.00;;;;;;2379990;54;20929;-72
2021/06/01 02:11:48;;;;;;;2.33;1.00;;;18.80;44.00;;;;;;2304738;54;20969;-73
2021/06/01 02:14:16;;;;;;;2.85;1.27;;;18.80;44.00;;;;;;2467005;54;21010;-73
2021/06/01 02:16:42;;;;;;;2.55;1.02;;;18.70;44.00;;;;;;2296488;55;21677;-72
2021/06/01 02:19:11;;;;;;;2.10;1.00;;;18.70;44.10;;;;;;2352902;54;21073;-72
2021/06/01 02:22:24;;;;;;;2.90;1.08;;;18.70;44.10;;;;;;2294165;55;20978;-71
2021/06/01 02:25:14;;;;;;;2.67;1.25;;;18.60;43.90;;;;;;2284526;55;21281;-74
2021/06/01 02:29:22;;;;;;;2.67;1.17;;;18.60;43.80;;;;;;2507669;53;21714;-72
2021/06/01 02:31:48;;;;;;;2.00;0.98;;;18.60;43.80;;;;;;2299681;54;21032;-73
2021/06/01 02:34:14;;;;;;;2.00;0.90;;;18.50;44.30;;;;;;2280197;55;20966;-73
2021/06/01 02:36:41;;;;;;;2.20;1.00;;;18.50;44.30;;;;;;2297627;55;20985;-73
2021/06/01 02:39:08;;;;;;;3.05;1.42;;;18.40;44.40;;;;;;2515423;54;21442;-72
2021/06/01 02:41:34;;;;;;;2.90;1.50;;;18.40;44.60;;;;;;2291386;55;21399;-73
2021/06/01 02:44:01;;;;;;;3.80;1.30;;;18.30;44.60;;;;;;2513796;54;20997;-72
2021/06/01 02:46:27;;;;;;;2.60;1.02;;;18.30;44.60;;;;;;2409725;54;21021;-72
2021/06/01 02:48:53;;;;;;;2.87;1.30;;;18.20;44.60;;;;;;2286540;55;21698;-74
2021/06/01 02:51:19;;;;;;;3.03;1.37;;;18.20;44.70;;;;;;2289960;55;20997;-72
2021/06/01 02:53:50;;;;;;;2.85;1.37;;;18.10;44.70;;;;;;2502261;54;21122;-72
2021/06/01 02:56:16;;;;;;;3.87;1.55;;;18.10;44.80;;;;;;2291942;55;20980;-73
2021/06/01 02:58:43;;;;;;;2.50;1.30;;;18.00;44.80;;;;;;2281413;55;21027;-73
2021/06/01 03:01:16;;;;;;;3.17;1.17;;;17.90;44.80;;;;;;2297143;55;20954;-72
2021/06/01 03:03:48;;;;;;;2.72;1.33;;;17.80;44.90;;;;;;2283212;55;20970;-75
2021/06/01 03:06:25;;;;;;;2.05;0.90;;;17.70;44.80;;;;;;2520423;54;20981;-72
2021/06/01 03:08:51;;;;;;;2.72;1.52;;;17.70;44.80;;;;;;2290340;55;20974;-72
2021/06/01 03:11:19;;;;;;;2.50;1.08;;;17.60;45.10;;;;;;2508664;54;21239;-72
2021/06/01 03:13:51;;;;;;;2.17;1.12;;;17.50;45.20;;;;;;2303500;54;21057;-74
2021/06/01 03:16:21;;;;;;;2.62;1.02;;;17.40;45.10;;;;;;2456882;53;21069;-72
2021/06/01 03:18:50;;;;;;;1.90;0.90;;;17.40;45.30;;;;;;2465765;54;21036;-73
2021/06/01 03:21:16;;;;;;;3.03;1.20;;;17.30;45.40;;;;;;2284936;55;21054;-71
2021/06/01 03:23:42;;;;;;;2.42;1.12;;;17.20;45.40;;;;;;2454687;54;21069;-73
2021/06/01 03:26:09;;;;;;;2.20;1.05;;;17.20;45.60;;;;;;2519846;54;21033;-74
2021/06/01 03:28:35;;;;;;;2.78;1.10;;;17.10;45.60;;;;;;2280845;55;21041;-72
2021/06/01 03:31:01;;;;;;;2.72;1.05;;;17.00;45.60;;;;;;2520002;54;21472;-73
2021/06/01 03:33:28;;;;;;;2.50;1.17;;;17.00;45.70;;;;;;2282007;55;20950;-75
2021/06/01 03:35:55;;;;;;;2.22;1.02;;;16.90;45.80;;;;;;2291468;55;21870;-72
2021/06/01 03:38:21;;;;;;;3.12;1.30;;;16.80;45.80;;;;;;2353307;54;21045;-73
2021/06/01 03:40:48;;;;;;;2.47;1.25;;;16.80;46.00;;;;;;2292454;55;20994;-72
2021/06/01 03:43:15;;;;;;;2.60;1.20;;;16.70;46.10;;;;;;2520547;54;21060;-72
2021/06/01 03:45:41;;;;;;;2.15;1.02;;;16.70;46.20;;;;;;2460122;54;20988;-72
2021/06/01 03:48:08;;;;;;;2.33;1.05;;;16.60;46.30;;;;;;2517837;54;20984;-73
2021/06/01 03:50:34;;;;;;;2.05;1.10;;;16.50;46.40;;;;;;2275120;55;20922;-72
2021/06/01 03:53:02;;;;;;;2.72;1.20;;;16.50;46.50;;;;;;2293491;55;21009;-71
2021/06/01 03:55:29;;;;;;;2.58;1.25;;;16.40;46.50;;;;;;2282388;55;21032;-72
2021/06/01 03:57:56;;;;;;;2.30;1.10;;;16.40;46.70;;;;;;2393385;54;21057;-73
2021/06/01 04:00:24;;;;;;;2.55;1.20;;;16.30;46.70;;;;;;2298362;55;20977;-72
2021/06/01 04:02:53;;;;;;;3.67;1.40;;;16.30;46.90;;;;;;2512794;54;20957;-72
2021/06/01 04:05:22;;;;;;;2.60;1.40;;;16.20;47.00;;;;;;2294831;55;21756;-72
2021/06/01 04:07:48;;;;;;;2.67;1.23;;;16.20;47.20;;;;;;2345960;53;21014;-72
2021/06/01 04:10:15;;;;;;;3.60;1.45;;;16.10;47.20;;;;;;2301203;54;21112;-72
2021/06/01 04:12:41;;;;;;;3.37;1.65;;;16.10;47.30;;;;;;2285783;55;21576;-74
2021/06/01 04:15:08;;;;;;;2.80;1.40;;;16.00;47.40;;;;;;2358914;54;21054;-70
2021/06/01 04:17:35;;;;;;;2.72;1.33;;;16.00;47.50;;;;;;2294945;55;21009;-72
2021/06/01 04:20:03;;;;;;;2.75;1.33;;;15.90;47.60;;;;;;2507090;54;21046;-72
2021/06/01 04:22:32;;;;;;;2.28;1.33;;;15.90;47.70;;;;;;2294398;55;21029;-71
2021/06/01 04:24:58;;;;;;;4.37;1.30;;;15.90;47.80;;;;;;2409428;54;21001;-72
2021/06/01 04:27:25;;;;;;;2.90;1.50;;;15.80;47.90;;;;;;2519607;54;21408;-71
2021/06/01 04:29:53;;;;;;;2.70;1.30;;;15.80;47.90;;;;;;2522953;54;20982;-72
2021/06/01 04:32:19;;;;;;;2.75;1.35;;;15.70;48.00;;;;;;2299867;55;21069;-73
2021/06/01 04:34:46;;;;;;;2.53;1.40;;;15.70;48.10;;;;;;2292579;55;21037;-72
2021/06/01 04:37:12;;;;;;;3.20;1.55;;;15.70;48.30;;;;;;2288952;55;21045;-71
2021/06/01 04:39:39;;;;;;;2.72;1.52;;;15.60;48.50;;;;;;2281574;55;21770;-72
2021/06/01 04:42:07;;;;;;;2.90;1.48;;;15.60;48.70;;;;;;2298282;55;21035;-71
2021/06/01 04:44:33;;;;;;;3.28;1.60;;;15.60;48.70;;;;;;2492516;54;21089;-73
2021/06/01 04:46:59;;;;;;;3.45;1.37;;;15.60;48.70;;;;;;2518095;54;21065;-72
2021/06/01 04:49:26;;;;;;;2.53;1.20;;;15.60;48.80;;;;;;2289727;55;20993;-72
2021/06/01 04:51:52;;;;;;;2.28;1.20;;;15.60;48.90;;;;;;2281360;55;20951;-72
2021/06/01 04:54:20;;;;;;;3.95;2.10;;;15.60;48.90;;;;;;2296385;55;20957;-72
2021/06/01 04:56:46;;;;;;;8.35;5.07;;;15.60;49.00;;;;;;2519043;54;21604;-72
2021/06/01 04:59:12;;;;;;;13.45;8.75;;;15.50;49.00;;;;;;2291552;55;20985;-71
2021/06/01 05:01:39;;;;;;;10.68;6.05;;;15.50;49.00;;;;;;2507267;54;20926;-71
2021/06/01 05:04:06;;;;;;;10.07;6.07;;;15.60;49.20;;;;;;2291781;55;21504;-70
2021/06/01 05:06:33;;;;;;;6.43;4.00;;;15.60;49.30;;;;;;2295752;55;20993;-72
2021/06/01 05:08:59;;;;;;;4.50;2.62;;;15.50;49.30;;;;;;2293383;55;21088;-71
2021/06/01 05:11:25;;;;;;;4.43;2.55;;;15.50;49.40;;;;;;2290764;55;20989;-73
2021/06/01 05:13:52;;;;;;;3.37;1.87;;;15.60;49.50;;;;;;2523237;54;21797;-75
2021/06/01 05:16:18;;;;;;;3.55;1.70;;;15.60;49.60;;;;;;2293890;55;21040;-71
2021/06/01 05:18:45;;;;;;;4.18;1.60;;;15.60;49.80;;;;;;2284317;55;21042;-72
2021/06/01 05:21:11;;;;;;;3.22;1.50;;;15.60;49.90;;;;;;2488257;54;21007;-72
2021/06/01 05:23:38;;;;;;;2.42;1.25;;;15.70;50.00;;;;;;2294601;55;21890;-73
2021/06/01 05:26:04;;;;;;;2.85;1.25;;;15.80;50.20;;;;;;2525330;54;21569;-73
2021/06/01 05:28:37;;;;;;;2.85;1.20;;;15.80;50.20;;;;;;2290812;55;21052;-76
2021/06/01 05:31:30;;;;;;;2.20;1.20;;;15.80;50.20;;;;;;2294634;55;21079;-72
2021/06/01 05:34:02;;;;;;;2.62;1.40;;;15.90;50.90;;;;;;2294474;55;20984;-72
2021/06/01 05:36:30;;;;;;;2.97;1.35;;;15.90;50.40;;;;;;2517955;54;21074;-72
2021/06/01 05:38:56;;;;;;;2.53;1.25;;;16.00;50.60;;;;;;2291550;55;21017;-74
2021/06/01 05:41:23;;;;;;;4.22;1.45;;;16.00;50.60;;;;;;2505317;53;21479;-72
2021/06/01 05:43:49;;;;;;;2.20;1.20;;;16.10;50.80;;;;;;2512786;54;21659;-73
2021/06/01 05:46:16;;;;;;;2.72;1.55;;;16.20;51.00;;;;;;2286811;55;21474;-72
2021/06/01 05:48:43;;;;;;;2.90;1.45;;;16.20;51.10;;;;;;2292561;55;20993;-72
2021/06/01 05:51:11;;;;;;;4.07;2.08;;;16.20;51.20;;;;;;2522068;54;20958;-72
2021/06/01 05:53:37;;;;;;;2.95;1.50;;;16.30;51.30;;;;;;2450487;54;21065;-73
2021/06/01 05:56:04;;;;;;;3.22;1.92;;;16.40;51.40;;;;;;2383280;54;21249;-73
2021/06/01 05:58:32;;;;;;;4.00;1.90;;;16.40;51.50;;;;;;2290532;55;21446;-72
2021/06/01 06:00:58;;;;;;;2.80;1.60;;;16.50;51.60;;;;;;2292995;55;20938;-71
2021/06/01 06:03:25;;;;;;;2.50;1.30;;;16.60;51.70;;;;;;2296286;55;21503;-75
2021/06/01 06:05:51;;;;;;;2.95;1.58;;;16.70;51.80;;;;;;2292769;55;20994;-74
2021/06/01 06:08:23;;;;;;;3.17;1.45;;;16.70;51.80;;;;;;2279406;55;21020;-71
2021/06/01 06:10:49;;;;;;;3.37;1.70;;;16.80;51.80;;;;;;2297838;55;21827;-72
2021/06/01 06:13:16;;;;;;;3.33;1.80;;;16.90;51.90;;;;;;2518230;54;21711;-70
2021/06/01 06:15:42;;;;;;;3.28;1.85;;;17.00;52.00;;;;;;2516579;54;21958;-74
2021/06/01 06:19:12;;;;;;;5.97;1.98;;;17.10;52.10;;;;;;2294655;55;21521;-71
2021/06/01 06:21:38;;;;;;;2.95;1.58;;;17.20;52.10;;;;;;2505058;54;21431;-74
2021/06/01 06:24:05;;;;;;;3.75;1.77;;;17.30;52.20;;;;;;2291540;55;21974;-73
2021/06/01 06:26:32;;;;;;;3.25;1.60;;;17.40;52.20;;;;;;2352148;54;21086;-69
2021/06/01 06:28:58;;;;;;;3.45;1.90;;;17.40;52.20;;;;;;2291615;55;21099;-73
2021/06/01 06:31:26;;;;;;;3.28;1.77;;;17.60;52.40;;;;;;2525181;54;20989;-72
2021/06/01 06:33:53;;;;;;;3.00;1.67;;;17.60;52.30;;;;;;2284841;54;21013;-73
2021/06/01 06:36:20;;;;;;;4.80;1.85;;;17.70;52.30;;;;;;2371055;54;21837;-72
2021/06/01 06:38:47;;;;;;;3.28;1.77;;;17.80;52.40;;;;;;2293126;55;21482;-73
2021/06/01 06:41:16;;;;;;;3.28;1.62;;;17.90;52.50;;;;;;2291592;54;21013;-73
2021/06/01 06:43:53;;;;;;;3.05;1.55;;;18.00;52.50;;;;;;2300992;55;20936;-77
2021/06/01 06:46:27;;;;;;;4.57;1.75;;;18.20;52.50;;;;;;2303478;55;20977;-74
2021/06/01 06:48:54;;;;;;;3.30;1.50;;;18.30;52.60;;;;;;2275553;56;21052;-73
2021/06/01 06:51:22;;;;;;;4.18;1.98;;;18.40;52.70;;;;;;2301845;55;21064;-74
2021/06/01 06:53:52;;;;;;;3.10;1.58;;;18.50;52.70;;;;;;2301400;55;20947;-73
2021/06/01 06:56:28;;;;;;;3.50;1.58;;;18.60;52.70;;;;;;2296402;55;20994;-73
2021/06/01 06:58:55;;;;;;;3.20;1.60;;;18.70;52.60;;;;;;2275655;56;20961;-73
2021/06/01 07:01:23;;;;;;;3.50;1.70;;;18.80;52.70;;;;;;2300620;55;21008;-73
2021/06/01 07:03:52;;;;;;;3.15;1.62;;;19.00;52.90;;;;;;2301612;55;20956;-74
2021/06/01 07:06:20;;;;;;;3.47;1.55;;;19.20;53.10;;;;;;2299143;55;21014;-72
2021/06/01 07:08:46;;;;;;;2.90;1.60;;;19.40;53.20;;;;;;2298572;55;21004;-73
2021/06/01 07:11:14;;;;;;;3.35;1.50;;;19.50;53.00;;;;;;2302000;55;20932;-73
2021/06/01 07:14:02;;;;;;;2.80;1.30;;;19.60;52.90;;;;;;2302010;55;21015;-75
2021/06/01 07:16:29;;;;;;;2.92;1.42;;;19.80;52.30;;;;;;2314985;54;20973;-73
2021/06/01 07:18:55;;;;;;;3.40;1.65;;;19.90;52.70;;;;;;2301548;55;21092;-75
2021/06/01 07:21:21;;;;;;;2.92;1.17;;;20.00;52.60;;;;;;2301457;55;21402;-73
2021/06/01 07:23:48;;;;;;;3.30;1.45;;;20.10;52.70;;;;;;2301823;55;20921;-71
2021/06/01 07:26:14;;;;;;;3.05;1.50;;;20.30;52.90;;;;;;2300939;55;20976;-75
2021/06/01 07:28:49;;;;;;;3.22;1.55;;;20.40;53.00;;;;;;2301575;55;20970;-75
2021/06/01 07:31:16;;;;;;;3.10;1.30;;;20.60;52.90;;;;;;2293935;55;21992;-73
2021/06/01 07:33:44;;;;;;;2.55;1.37;;;20.80;53.30;;;;;;2297187;55;21415;-77
2021/06/01 07:36:12;;;;;;;4.50;1.55;;;20.90;53.10;;;;;;2383103;53;21548;-75
2021/06/01 07:38:39;;;;;;;3.58;1.70;;;21.10;52.90;;;;;;2300141;55;20945;-73
2021/06/01 07:41:06;;;;;;;2.53;1.10;;;21.20;52.80;;;;;;2292555;55;21204;-75
2021/06/01 07:43:33;;;;;;;2.22;1.12;;;21.30;52.50;;;;;;2291145;55;21057;-75
2021/06/01 07:46:02;;;;;;;2.85;1.23;;;21.40;52.30;;;;;;2516651;54;20997;-74
2021/06/01 07:48:28;;;;;;;2.60;1.30;;;21.50;52.20;;;;;;2290198;55;21105;-77
2021/06/01 07:50:54;;;;;;;3.15;1.30;;;21.50;52.00;;;;;;2291068;55;21087;-74
2021/06/01 07:53:22;;;;;;;2.42;1.10;;;21.70;51.90;;;;;;2293831;55;20978;-76
2021/06/01 07:55:48;;;;;;;2.60;1.20;;;21.80;51.80;;;;;;2291478;55;21112;-74
2021/06/01 07:58:16;;;;;;;2.40;1.00;;;21.80;51.60;;;;;;2517630;54;21117;-75
2021/06/01 08:00:42;;;;;;;2.08;1.00;;;21.90;51.60;;;;;;2460143;54;20969;-76
2021/06/01 08:03:08;;;;;;;2.45;1.05;;;22.00;51.60;;;;;;2292106;55;21123;-77
2021/06/01 08:05:35;;;;;;;3.20;1.42;;;22.10;51.60;;;;;;2519085;54;21782;-76
2021/06/01 08:08:01;;;;;;;2.30;1.10;;;22.20;51.50;;;;;;2291682;55;21021;-77
2021/06/01 08:10:28;;;;;;;2.67;1.40;;;22.20;51.30;;;;;;2290536;55;21428;-77
2021/06/01 08:12:54;;;;;;;2.60;0.98;;;22.30;51.20;;;;;;2293424;55;20970;-74
2021/06/01 08:15:23;;;;;;;2.78;1.27;;;22.40;51.30;;;;;;2291640;55;21840;-77
2021/06/01 08:17:53;;;;;;;3.55;0.98;;;22.50;51.20;;;;;;2519124;54;21045;-77
2021/06/01 08:20:37;;;;;;;2.00;1.00;;;22.60;51.10;;;;;;2523820;53;21038;-79
2021/06/01 08:23:04;;;;;;;2.20;1.00;;;22.70;51.10;;;;;;2343261;53;21077;-78
2021/06/01 08:25:31;;;;;;;3.30;1.33;;;22.80;51.00;;;;;;2292892;54;21045;-75
2021/06/01 08:27:57;;;;;;;2.37;1.10;;;22.90;50.80;;;;;;2292629;55;20964;-75
2021/06/01 08:30:24;;;;;;;4.18;1.20;;;23.10;50.70;;;;;;2298202;55;21037;-78
2021/06/01 08:32:50;;;;;;;2.22;1.10;;;23.10;50.50;;;;;;2291184;55;20981;-75
2021/06/01 08:35:17;;;;;;;2.12;1.00;;;23.20;50.40;;;;;;2294907;55;21010;-76
2021/06/01 08:37:44;;;;;;;3.40;1.10;;;23.30;50.20;;;;;;2293076;55;21008;-76
2021/06/01 08:40:12;;;;;;;2.55;1.10;;;23.40;50.00;;;;;;2300780;54;21085;-75
2021/06/01 08:42:40;;;;;;;2.60;1.10;;;23.40;49.80;;;;;;2296516;55;21852;-78
2021/06/01 08:45:07;;;;;;;2.50;1.30;;;23.50;49.80;;;;;;2299007;55;20973;-75
2021/06/01 08:47:37;;;;;;;2.40;1.20;;;23.60;49.70;;;;;;2301879;55;20988;-76
2021/06/01 08:50:05;;;;;;;3.78;1.33;;;23.60;49.20;;;;;;2301916;55;20932;-75
2021/06/01 08:52:31;;;;;;;1.95;0.93;;;23.70;50.00;;;;;;2301411;55;20960;-74
2021/06/01 08:54:58;;;;;;;3.45;1.42;;;23.80;49.60;;;;;;2301457;55;20968;-75
2021/06/01 08:57:28;;;;;;;3.15;1.10;;;23.80;50.10;;;;;;2301555;55;21740;-75
2021/06/01 08:59:54;;;;;;;4.35;1.17;;;23.90;49.60;;;;;;2302065;55;21060;-76
2021/06/01 09:02:24;;;;;;;3.87;1.23;;;24.00;49.60;;;;;;2297446;55;20981;-74
2021/06/01 09:04:59;;;;;;;3.53;1.05;;;24.20;49.50;;;;;;2303161;55;20977;-74
2021/06/01 09:07:42;;;;;;;2.25;1.02;;;24.30;49.80;;;;;;2470307;54;21033;-75
2021/06/01 09:24:39;;;;;;;2.60;1.05;;;24.80;47.20;;;;;;2303259;55;20941;-74
2021/06/01 09:27:13;;;;;;;2.62;0.93;;;24.90;48.40;;;;;;2296693;55;20938;-73
2021/06/01 09:29:42;;;;;;;2.95;1.10;;;24.90;48.20;;;;;;2301479;55;21107;-75
2021/06/01 09:32:13;;;;;;;3.03;1.40;;;25.00;48.00;;;;;;2526605;54;20931;-75
2021/06/01 09:34:44;;;;;;;2.95;1.20;;;25.00;47.40;;;;;;2276237;55;20945;-77
2021/06/01 09:37:36;;;;;;;3.83;1.10;;;25.10;47.20;;;;;;2302165;55;21017;-77
2021/06/01 09:40:19;;;;;;;2.28;1.08;;;25.10;46.40;;;;;;2301704;55;20952;-78
2021/06/01 09:42:53;;;;;;;3.08;1.35;;;25.10;46.50;;;;;;2501330;54;21413;-79
2021/06/01 09:45:22;;;;;;;2.65;1.20;;;25.20;46.80;;;;;;2303644;55;20988;-75
2021/06/01 09:47:57;;;;;;;3.03;1.23;;;25.20;46.90;;;;;;2537317;54;21078;-78
2021/06/01 09:50:46;;;;;;;2.60;1.20;;;25.20;46.80;;;;;;2532047;54;20952;-76
2021/06/01 09:53:24;;;;;;;2.25;1.05;;;25.30;45.90;;;;;;2301969;55;21488;-77
2021/06/01 09:55:50;;;;;;;2.60;1.00;;;25.30;46.60;;;;;;2272649;55;21068;-74
2021/06/01 10:00:26;;;;;;;3.35;1.35;;;25.40;47.00;;;;;;2302154;55;20952;-75
2021/06/01 10:03:09;;;;;;;2.30;0.80;;;25.50;46.40;;;;;;2305279;55;20962;-74
2021/06/01 10:05:40;;;;;;;2.12;0.98;;;25.50;46.20;;;;;;2531268;54;21539;-75
2021/06/01 10:08:21;;;;;;;2.47;1.12;;;25.60;46.80;;;;;;2300869;55;20985;-75
2021/06/01 10:10:50;;;;;;;2.00;0.90;;;25.60;46.30;;;;;;2296648;55;21016;-74
2021/06/01 10:13:16;;;;;;;2.45;1.10;;;25.70;46.90;;;;;;2302080;55;20965;-75
2021/06/01 10:15:42;;;;;;;1.87;0.95;;;25.70;46.90;;;;;;2529717;54;21033;-77
2021/06/01 10:18:10;;;;;;;4.28;1.30;;;25.80;46.70;;;;;;2302344;55;20985;-73
2021/06/01 10:20:37;;;;;;;6.60;1.40;;;25.80;46.40;;;;;;2276881;55;20979;-75
2021/06/01 10:23:04;;;;;;;2.37;1.10;;;25.90;46.20;;;;;;2301995;55;21730;-74
2021/06/01 10:25:31;;;;;;;2.70;0.98;;;25.90;46.10;;;;;;2439073;53;20953;-77
2021/06/01 10:28:02;;;;;;;2.62;1.45;;;26.00;46.00;;;;;;2297851;54;20981;-75
2021/06/01 10:30:29;;;;;;;1.65;0.90;;;26.00;46.00;;;;;;2301577;55;20952;-74
2021/06/01 10:33:00;;;;;;;2.20;1.20;;;26.10;46.00;;;;;;2301560;55;20961;-77
2021/06/01 10:35:34;;;;;;;2.40;1.10;;;26.10;45.80;;;;;;2301078;55;21004;-75
2021/06/01 10:51:26;;;;;;;2.70;0.88;;;26.40;46.00;;;;;;2297918;55;20095;-75
2021/06/01 10:53:56;;;;;;;4.25;0.90;;;26.40;45.30;;;;;;2276254;55;20973;-74
2021/06/01 10:56:22;;;;;;;2.65;1.00;;;26.40;46.00;;;;;;2295198;55;21048;-75
2021/06/01 10:59:07;;;;;;;2.87;1.10;;;26.40;45.70;;;;;;2300807;55;21031;-75
2021/06/01 11:01:56;;;;;;;2.58;1.17;;;26.50;44.60;;;;;;2300820;55;20993;-76
2021/06/01 11:04:30;;;;;;;2.50;1.17;;;26.50;45.40;;;;;;2306235;54;21040;-75
2021/06/01 11:07:14;;;;;;;2.33;1.02;;;26.60;45.40;;;;;;2303955;55;21749;-77
2021/06/01 11:09:47;;;;;;;2.75;1.05;;;26.70;44.80;;;;;;2410776;53;20986;-75
2021/06/01 11:12:58;;;;;;;4.07;1.10;;;26.70;45.10;;;;;;2322556;54;21014;-77
2021/06/01 11:15:26;;;;;;;1.85;1.00;;;26.90;44.20;;;;;;2296873;55;20991;-75
2021/06/01 11:17:52;;;;;;;2.08;0.95;;;26.90;45.40;;;;;;2296486;55;21072;-75
2021/06/01 11:20:37;;;;;;;2.25;1.00;;;27.00;44.90;;;;;;2308602;54;21064;-75
2021/06/01 11:23:27;;;;;;;2.03;0.90;;;27.00;44.30;;;;;;2301894;55;20936;-76
2021/06/01 11:34:03;;;;;;;2.53;0.98;;;27.30;44.30;;;;;;2301878;55;20956;-76
2021/06/01 11:36:38;;;;;;;2.25;1.15;;;27.40;44.10;;;;;;2538369;53;21029;-76
2021/06/01 11:42:50;;;;;;;2.10;0.98;;;27.50;42.60;;;;;;2499740;53;20975;-75
2021/06/01 11:45:22;;;;;;;1.50;0.70;;;27.50;44.00;;;;;;2300878;55;20965;-75
2021/06/01 11:47:55;;;;;;;2.17;1.17;;;27.60;43.80;;;;;;2536686;53;20980;-75
2021/06/01 11:53:15;;;;;;;3.15;0.98;;;27.70;43.50;;;;;;2301763;54;20950;-74
2021/06/01 11:55:45;;;;;;;2.35;0.90;;;27.80;43.10;;;;;;2522125;54;21056;-75
2021/06/01 12:04:02;;;;;;;1.75;0.77;;;28.00;42.70;;;;;;2300720;55;20965;-76
2021/06/01 12:11:14;;;;;;;2.00;0.90;;;28.10;42.70;;;;;;2276131;55;21020;-75
2021/06/01 12:13:52;;;;;;;2.35;1.00;;;28.10;43.10;;;;;;2484856;53;20980;-77
2021/06/01 12:19:09;;;;;;;1.80;0.90;;;28.40;42.60;;;;;;2532029;53;20918;-75
2021/06/01 12:21:43;;;;;;;2.08;0.90;;;28.40;41.90;;;;;;2297661;55;20988;-75
2021/06/01 12:24:16;;;;;;;1.87;0.80;;;28.40;41.90;;;;;;2298156;55;21005;-76
2021/06/01 12:27:03;;;;;;;2.10;0.90;;;28.50;41.60;;;;;;2293706;55;21128;-79
2021/06/01 12:32:33;;;;;;;1.83;0.88;;;28.50;42.00;;;;;;2386335;53;21523;-74
2021/06/01 12:43:23;;;;;;;2.10;1.00;;;28.70;41.90;;;;;;2297482;55;20950;-75
2021/06/01 13:08:07;;;;;;;1.87;1.00;;;29.10;41.00;;;;;;2516083;54;20937;-75
2021/06/01 13:13:57;;;;;;;1.65;0.80;;;29.20;40.80;;;;;;2301687;55;20977;-76
2021/06/01 13:19:28;;;;;;;2.20;0.80;;;29.30;40.20;;;;;;2435060;54;21066;-76
2021/06/01 13:22:18;;;;;;;1.73;0.80;;;29.30;39.40;;;;;;2528259;53;21005;-75
2021/06/01 13:32:30;;;;;;;1.95;0.80;;;29.30;40.40;;;;;;2479045;53;21958;-76
2021/06/01 13:55:35;;;;;;;1.30;0.57;;;29.80;40.40;;;;;;2298347;55;20937;-77
2021/06/01 13:58:24;;;;;;;2.15;0.80;;;29.80;39.80;;;;;;2301346;55;20981;-77
2021/06/01 14:09:44;;;;;;;1.52;0.70;;;30.00;39.70;;;;;;2299974;55;20987;-80
2021/06/01 14:37:01;;;;;;;2.05;0.93;;;30.40;38.30;;;;;;2426349;53;20945;-75
2021/06/01 15:49:16;;;;;;;2.67;0.77;;;30.10;37.90;;;;;;2268469;56;20961;-75
2021/06/01 15:51:57;;;;;;;2.17;0.98;;;30.00;37.60;;;;;;2302421;55;20972;-75
2021/06/01 15:55:06;;;;;;;2.03;0.70;;;30.00;37.00;;;;;;2458998;55;21001;-77
2021/06/01 16:11:43;;;;;;;2.03;0.82;;;29.70;36.80;;;;;;2399338;54;1281702;-74
2021/06/01 16:14:21;;;;;;;2.55;1.20;;;29.70;36.90;;;;;;2516130;53;20978;-75
2021/06/01 16:21:30;;;;;;;2.08;0.85;;;29.60;36.20;;;;;;2297794;55;20970;-74
2021/06/01 16:31:16;;;;;;;1.85;0.73;;;29.60;36.90;;;;;;2306462;54;20679;-75
2021/06/01 17:12:06;;;;;;;2.25;0.80;;;29.20;36.30;;;;;;2295614;55;21009;-75
2021/06/01 17:14:33;;;;;;;2.67;0.88;;;29.20;37.00;;;;;;2277770;56;21024;-75
2021/06/01 17:17:02;;;;;;;2.95;1.00;;;29.10;36.50;;;;;;2538041;53;20941;-76
2021/06/01 17:23:57;;;;;;;3.58;0.68;;;29.10;36.50;;;;;;2302099;55;21013;-74
2021/06/01 17:34:58;;;;;;;1.90;0.90;;;28.90;36.90;;;;;;2369792;53;21438;-76
2021/06/01 17:37:25;;;;;;;1.73;0.80;;;28.90;36.10;;;;;;2301302;55;20928;-78
2021/06/01 17:39:52;;;;;;;2.08;0.90;;;28.80;36.10;;;;;;2302168;55;21010;-77
2021/06/01 17:42:20;;;;;;;4.22;0.82;;;28.80;36.00;;;;;;2296217;55;20928;-78
2021/06/01 17:44:49;;;;;;;4.45;1.00;;;28.80;36.00;;;;;;2301855;55;21447;-75
2021/06/01 17:47:23;;;;;;;1.67;0.80;;;28.80;36.00;;;;;;2539123;53;20960;-75
2021/06/01 17:49:53;;;;;;;2.03;0.82;;;28.90;35.90;;;;;;2301776;55;20973;-77
2021/06/01 17:52:32;;;;;;;3.22;0.90;;;29.00;36.10;;;;;;2293232;55;20933;-75
2021/06/01 17:54:59;;;;;;;4.62;1.02;;;29.10;35.60;;;;;;2524705;53;22090;-75
2021/06/01 17:57:26;;;;;;;1.35;0.70;;;29.20;35.90;;;;;;2294162;55;21008;-78
2021/06/01 17:59:53;;;;;;;2.00;0.90;;;29.30;35.60;;;;;;2302023;55;20956;-76
2021/06/01 18:02:20;;;;;;;2.85;1.00;;;29.40;35.20;;;;;;2301664;55;21108;-75
2021/06/01 18:04:50;;;;;;;1.35;0.70;;;29.50;35.00;;;;;;2304168;55;20990;-74
2021/06/01 18:07:29;;;;;;;1.87;0.90;;;29.60;34.80;;;;;;2296086;55;21072;-77
2021/06/01 19:00:39;;;;;;;2.90;1.20;;;28.90;35.90;;;;;;2402971;53;20995;-75
2021/06/01 19:21:24;;;;;;;2.87;1.40;;;28.30;36.50;;;;;;2341555;53;21418;-74
2021/06/01 19:24:11;;;;;;;6.18;3.37;;;27.90;36.60;;;;;;2297251;55;21032;-74
2021/06/01 19:43:24;;;;;;;3.10;1.00;;;25.70;37.80;;;;;;2283486;55;20933;-75
2021/06/01 19:51:22;;;;;;;1.92;0.80;;;25.20;38.20;;;;;;2275139;56;20984;-74
2021/06/01 19:53:50;;;;;;;3.20;0.85;;;25.00;38.30;;;;;;2276316;55;20976;-74
2021/06/01 19:56:16;;;;;;;2.97;0.75;;;24.80;38.30;;;;;;2302407;55;20942;-73